Terminal Aerodrome Forecast
Issued by NWS

Home | Current Version | Previous Version | Graphics & Text | Print | Product List | Glossary On
Versions: 1 2 3 4 5 6 7 8 9 10 11 12 13 14 15 16 17 18 19 20 21 22
000
FTUS43 KLSX 281900 AAA
TAFSUS
TAF AMD
KSUS 281958Z 2820/2918 VRB04KT P6SM FEW040
     FM282100 11007KT P6SM VCTS SCT050CB BKN120
     FM290200 10004KT P6SM SCT200
     FM291500 15006KT P6SM SCT060=

USA.gov is the U.S. government's official web portal to all federal, state and local government web resources and services.